sensor_id;sensor_type;location;lat;lon;timestamp;temperature;humidity
21815;DHT22;11069;48.988;8.450;2023-08-24T00:00:41;20.50;99.90
21815;DHT22;11069;48.988;8.450;2023-08-24T00:03:08;20.40;99.90
21815;DHT22;11069;48.988;8.450;2023-08-24T00:05:34;20.30;99.90
21815;DHT22;11069;48.988;8.450;2023-08-24T00:08:08;20.30;99.90
21815;DHT22;11069;48.988;8.450;2023-08-24T00:10:35;20.30;99.90
21815;DHT22;11069;48.988;8.450;2023-08-24T00:13:01;20.30;99.90
21815;DHT22;11069;48.988;8.450;2023-08-24T00:15:27;20.30;99.90
21815;DHT22;11069;48.988;8.450;2023-08-24T00:17:53;20.40;99.90
21815;DHT22;11069;48.988;8.450;2023-08-24T00:20:19;20.30;99.90
21815;DHT22;11069;48.988;8.450;2023-08-24T00:22:46;20.30;99.90
21815;DHT22;11069;48.988;8.450;2023-08-24T00:25:12;20.40;99.90
21815;DHT22;11069;48.988;8.450;2023-08-24T00:27:38;20.40;99.90
21815;DHT22;11069;48.988;8.450;2023-08-24T00:30:05;20.50;99.90
21815;DHT22;11069;48.988;8.450;2023-08-24T00:32:32;20.50;99.90
21815;DHT22;11069;48.988;8.450;2023-08-24T00:35:03;20.60;99.90
21815;DHT22;11069;48.988;8.450;2023-08-24T00:37:32;20.60;99.90
21815;DHT22;11069;48.988;8.450;2023-08-24T00:40:01;20.60;99.90
21815;DHT22;11069;48.988;8.450;2023-08-24T00:42:36;20.60;99.90
21815;DHT22;11069;48.988;8.450;2023-08-24T00:45:02;20.50;99.90
21815;DHT22;11069;48.988;8.450;2023-08-24T00:47:28;20.50;99.90
21815;DHT22;11069;48.988;8.450;2023-08-24T00:49:55;20.50;99.90
21815;DHT22;11069;48.988;8.450;2023-08-24T00:52:20;20.60;99.90
21815;DHT22;11069;48.988;8.450;2023-08-24T00:54:47;20.50;99.90
21815;DHT22;11069;48.988;8.450;2023-08-24T00:57:13;20.50;99.90
21815;DHT22;11069;48.988;8.450;2023-08-24T00:59:39;20.50;99.90
21815;DHT22;11069;48.988;8.450;2023-08-24T01:02:05;20.30;99.90
21815;DHT22;11069;48.988;8.450;2023-08-24T01:04:30;20.30;99.90
21815;DHT22;11069;48.988;8.450;2023-08-24T01:06:56;20.20;99.90
21815;DHT22;11069;48.988;8.450;2023-08-24T01:09:22;20.10;99.90
21815;DHT22;11069;48.988;8.450;2023-08-24T01:17:23;20.10;99.90
21815;DHT22;11069;48.988;8.450;2023-08-24T01:19:50;20.10;99.90
21815;DHT22;11069;48.988;8.450;2023-08-24T01:27:36;20.20;99.90
21815;DHT22;11069;48.988;8.450;2023-08-24T01:30:03;20.20;99.90
21815;DHT22;11069;48.988;8.450;2023-08-24T01:32:33;20.20;99.90
21815;DHT22;11069;48.988;8.450;2023-08-24T01:35:01;20.20;99.90
21815;DHT22;11069;48.988;8.450;2023-08-24T01:37:26;20.10;99.90
21815;DHT22;11069;48.988;8.450;2023-08-24T01:42:20;20.10;99.90
21815;DHT22;11069;48.988;8.450;2023-08-24T01:44:52;20.00;99.90
21815;DHT22;11069;48.988;8.450;2023-08-24T01:47:21;20.00;99.90
21815;DHT22;11069;48.988;8.450;2023-08-24T01:49:48;20.00;99.90
21815;DHT22;11069;48.988;8.450;2023-08-24T01:52:14;20.10;99.90
21815;DHT22;11069;48.988;8.450;2023-08-24T01:54:40;20.20;99.90
21815;DHT22;11069;48.988;8.450;2023-08-24T01:57:06;20.20;99.90
21815;DHT22;11069;48.988;8.450;2023-08-24T01:59:31;20.20;99.90
21815;DHT22;11069;48.988;8.450;2023-08-24T02:01:57;20.20;99.90
21815;DHT22;11069;48.988;8.450;2023-08-24T02:04:23;20.20;99.90
21815;DHT22;11069;48.988;8.450;2023-08-24T02:06:48;20.20;99.90
21815;DHT22;11069;48.988;8.450;2023-08-24T02:09:14;20.20;99.90
21815;DHT22;11069;48.988;8.450;2023-08-24T02:11:39;20.10;99.90
21815;DHT22;11069;48.988;8.450;2023-08-24T02:14:05;20.10;99.90
21815;DHT22;11069;48.988;8.450;2023-08-24T02:16:31;20.10;99.90
21815;DHT22;11069;48.988;8.450;2023-08-24T02:18:56;20.00;99.90
21815;DHT22;11069;48.988;8.450;2023-08-24T02:21:22;20.00;99.90
21815;DHT22;11069;48.988;8.450;2023-08-24T02:23:47;20.00;99.90
21815;DHT22;11069;48.988;8.450;2023-08-24T02:26:13;19.90;99.90
21815;DHT22;11069;48.988;8.450;2023-08-24T02:28:39;20.00;99.90
21815;DHT22;11069;48.988;8.450;2023-08-24T02:31:05;20.00;99.90
21815;DHT22;11069;48.988;8.450;2023-08-24T02:33:31;20.00;99.90
21815;DHT22;11069;48.988;8.450;2023-08-24T02:35:57;20.00;99.90
21815;DHT22;11069;48.988;8.450;2023-08-24T02:38:23;20.10;99.90
21815;DHT22;11069;48.988;8.450;2023-08-24T02:40:49;20.00;99.90
21815;DHT22;11069;48.988;8.450;2023-08-24T02:43:14;19.90;99.90
21815;DHT22;11069;48.988;8.450;2023-08-24T02:45:40;19.90;99.90
21815;DHT22;11069;48.988;8.450;2023-08-24T02:48:06;19.90;99.90
21815;DHT22;11069;48.988;8.450;2023-08-24T02:50:31;19.90;99.90
21815;DHT22;11069;48.988;8.450;2023-08-24T02:52:57;19.70;99.90
21815;DHT22;11069;48.988;8.450;2023-08-24T02:55:27;19.70;99.90
21815;DHT22;11069;48.988;8.450;2023-08-24T02:57:52;19.70;99.90
21815;DHT22;11069;48.988;8.450;2023-08-24T03:00:18;19.80;99.90
21815;DHT22;11069;48.988;8.450;2023-08-24T03:02:43;19.80;99.90
21815;DHT22;11069;48.988;8.450;2023-08-24T03:05:09;19.80;99.90
21815;DHT22;11069;48.988;8.450;2023-08-24T03:07:35;19.70;99.90
21815;DHT22;11069;48.988;8.450;2023-08-24T03:10:00;19.70;99.90
21815;DHT22;11069;48.988;8.450;2023-08-24T03:12:26;19.80;99.90
21815;DHT22;11069;48.988;8.450;2023-08-24T03:14:52;19.80;99.90
21815;DHT22;11069;48.988;8.450;2023-08-24T03:17:21;19.90;99.90
21815;DHT22;11069;48.988;8.450;2023-08-24T03:19:46;19.80;99.90
21815;DHT22;11069;48.988;8.450;2023-08-24T03:22:12;19.90;99.90
21815;DHT22;11069;48.988;8.450;2023-08-24T03:24:37;19.90;99.90
21815;DHT22;11069;48.988;8.450;2023-08-24T03:27:03;19.90;99.90
21815;DHT22;11069;48.988;8.450;2023-08-24T03:29:28;19.90;99.90
21815;DHT22;11069;48.988;8.450;2023-08-24T03:31:54;19.80;99.90
21815;DHT22;11069;48.988;8.450;2023-08-24T03:34:20;19.90;99.90
21815;DHT22;11069;48.988;8.450;2023-08-24T03:36:46;19.90;99.90
21815;DHT22;11069;48.988;8.450;2023-08-24T03:39:13;19.90;99.90
21815;DHT22;11069;48.988;8.450;2023-08-24T03:41:40;19.80;99.90
21815;DHT22;11069;48.988;8.450;2023-08-24T03:44:06;19.90;99.90
21815;DHT22;11069;48.988;8.450;2023-08-24T03:46:32;19.80;99.90
21815;DHT22;11069;48.988;8.450;2023-08-24T03:48:57;19.70;99.90
21815;DHT22;11069;48.988;8.450;2023-08-24T03:51:23;19.80;99.90
21815;DHT22;11069;48.988;8.450;2023-08-24T03:53:48;19.80;99.90
21815;DHT22;11069;48.988;8.450;2023-08-24T03:56:14;19.70;99.90
21815;DHT22;11069;48.988;8.450;2023-08-24T03:58:39;19.80;99.90
21815;DHT22;11069;48.988;8.450;2023-08-24T04:01:09;19.90;99.90
21815;DHT22;11069;48.988;8.450;2023-08-24T04:03:35;19.90;99.90
21815;DHT22;11069;48.988;8.450;2023-08-24T04:06:00;20.00;99.90
21815;DHT22;11069;48.988;8.450;2023-08-24T04:08:26;19.90;99.90
21815;DHT22;11069;48.988;8.450;2023-08-24T04:10:51;19.90;99.90
21815;DHT22;11069;48.988;8.450;2023-08-24T04:13:17;19.80;99.90
21815;DHT22;11069;48.988;8.450;2023-08-24T04:15:42;19.80;99.90
21815;DHT22;11069;48.988;8.450;2023-08-24T04:18:08;19.70;99.90
21815;DHT22;11069;48.988;8.450;2023-08-24T04:20:33;19.70;99.90
21815;DHT22;11069;48.988;8.450;2023-08-24T04:22:59;19.70;99.90
21815;DHT22;11069;48.988;8.450;2023-08-24T04:25:24;19.70;99.90
21815;DHT22;11069;48.988;8.450;2023-08-24T04:27:50;19.70;99.90
21815;DHT22;11069;48.988;8.450;2023-08-24T04:30:16;19.80;99.90
21815;DHT22;11069;48.988;8.450;2023-08-24T04:32:41;19.70;99.90
21815;DHT22;11069;48.988;8.450;2023-08-24T04:35:07;19.80;99.90
21815;DHT22;11069;48.988;8.450;2023-08-24T04:37:33;19.90;99.90
21815;DHT22;11069;48.988;8.450;2023-08-24T04:39:58;19.80;99.90
21815;DHT22;11069;48.988;8.450;2023-08-24T04:42:24;19.90;99.90
21815;DHT22;11069;48.988;8.450;2023-08-24T04:44:51;19.90;99.90
21815;DHT22;11069;48.988;8.450;2023-08-24T04:47:16;19.90;99.90
21815;DHT22;11069;48.988;8.450;2023-08-24T04:49:42;19.90;99.90
21815;DHT22;11069;48.988;8.450;2023-08-24T04:52:07;20.00;99.90
21815;DHT22;11069;48.988;8.450;2023-08-24T04:54:33;20.10;99.90
21815;DHT22;11069;48.988;8.450;2023-08-24T04:56:59;20.10;99.90
21815;DHT22;11069;48.988;8.450;2023-08-24T04:59:25;20.00;99.90
21815;DHT22;11069;48.988;8.450;2023-08-24T05:01:50;20.00;99.90
21815;DHT22;11069;48.988;8.450;2023-08-24T05:04:16;20.00;99.90
21815;DHT22;11069;48.988;8.450;2023-08-24T05:06:41;19.90;99.90
21815;DHT22;11069;48.988;8.450;2023-08-24T05:09:07;20.00;99.90
21815;DHT22;11069;48.988;8.450;2023-08-24T05:11:33;20.00;99.90
21815;DHT22;11069;48.988;8.450;2023-08-24T05:13:59;20.10;99.90
21815;DHT22;11069;48.988;8.450;2023-08-24T05:16:24;20.20;99.90
21815;DHT22;11069;48.988;8.450;2023-08-24T05:18:50;20.30;99.90
21815;DHT22;11069;48.988;8.450;2023-08-24T05:21:16;20.40;99.90
21815;DHT22;11069;48.988;8.450;2023-08-24T05:23:41;20.50;99.90
21815;DHT22;11069;48.988;8.450;2023-08-24T05:26:07;20.60;99.90
21815;DHT22;11069;48.988;8.450;2023-08-24T05:28:32;20.70;99.90
21815;DHT22;11069;48.988;8.450;2023-08-24T05:31:05;20.80;99.90
21815;DHT22;11069;48.988;8.450;2023-08-24T05:33:30;20.80;99.90
21815;DHT22;11069;48.988;8.450;2023-08-24T05:35:58;20.90;99.90
21815;DHT22;11069;48.988;8.450;2023-08-24T05:38:24;21.00;99.90
21815;DHT22;11069;48.988;8.450;2023-08-24T05:40:49;21.10;99.90
21815;DHT22;11069;48.988;8.450;2023-08-24T05:43:15;21.10;99.90
21815;DHT22;11069;48.988;8.450;2023-08-24T05:45:41;21.10;99.90
21815;DHT22;11069;48.988;8.450;2023-08-24T05:48:09;21.10;99.90
21815;DHT22;11069;48.988;8.450;2023-08-24T05:50:35;21.00;99.90
21815;DHT22;11069;48.988;8.450;2023-08-24T05:53:03;21.00;99.90
21815;DHT22;11069;48.988;8.450;2023-08-24T05:55:28;21.00;99.90
21815;DHT22;11069;48.988;8.450;2023-08-24T05:57:54;21.00;99.90
21815;DHT22;11069;48.988;8.450;2023-08-24T06:00:20;21.00;99.90
21815;DHT22;11069;48.988;8.450;2023-08-24T06:02:47;21.00;99.90
21815;DHT22;11069;48.988;8.450;2023-08-24T06:05:13;21.00;99.90
21815;DHT22;11069;48.988;8.450;2023-08-24T06:07:39;21.00;99.90
21815;DHT22;11069;48.988;8.450;2023-08-24T06:10:05;21.00;99.90
21815;DHT22;11069;48.988;8.450;2023-08-24T06:12:31;21.00;99.90
21815;DHT22;11069;48.988;8.450;2023-08-24T06:14:56;21.10;99.90
21815;DHT22;11069;48.988;8.450;2023-08-24T06:17:22;21.10;99.90
21815;DHT22;11069;48.988;8.450;2023-08-24T06:19:48;21.10;99.90
21815;DHT22;11069;48.988;8.450;2023-08-24T06:22:13;21.10;99.90
21815;DHT22;11069;48.988;8.450;2023-08-24T06:24:39;21.10;99.90
21815;DHT22;11069;48.988;8.450;2023-08-24T06:27:04;21.10;99.90
21815;DHT22;11069;48.988;8.450;2023-08-24T06:29:30;21.00;99.90
21815;DHT22;11069;48.988;8.450;2023-08-24T06:31:55;20.90;99.90
21815;DHT22;11069;48.988;8.450;2023-08-24T06:34:22;20.90;99.90
21815;DHT22;11069;48.988;8.450;2023-08-24T06:36:50;20.80;99.90
21815;DHT22;11069;48.988;8.450;2023-08-24T06:39:15;20.90;99.90
21815;DHT22;11069;48.988;8.450;2023-08-24T06:41:41;21.00;99.90
21815;DHT22;11069;48.988;8.450;2023-08-24T06:44:06;21.10;99.90
21815;DHT22;11069;48.988;8.450;2023-08-24T06:46:32;21.10;99.90
21815;DHT22;11069;48.988;8.450;2023-08-24T06:48:58;21.20;99.90
21815;DHT22;11069;48.988;8.450;2023-08-24T06:51:25;21.10;99.90
21815;DHT22;11069;48.988;8.450;2023-08-24T06:53:50;21.20;99.90
21815;DHT22;11069;48.988;8.450;2023-08-24T06:56:16;21.20;99.90
21815;DHT22;11069;48.988;8.450;2023-08-24T06:58:43;21.20;99.90
21815;DHT22;11069;48.988;8.450;2023-08-24T07:01:08;21.30;99.90
21815;DHT22;11069;48.988;8.450;2023-08-24T07:03:34;21.60;99.90
21815;DHT22;11069;48.988;8.450;2023-08-24T07:06:00;21.60;99.90
21815;DHT22;11069;48.988;8.450;2023-08-24T07:08:25;21.70;99.90
21815;DHT22;11069;48.988;8.450;2023-08-24T07:10:51;21.90;99.90
21815;DHT22;11069;48.988;8.450;2023-08-24T07:13:16;22.50;99.90
21815;DHT22;11069;48.988;8.450;2023-08-24T07:15:42;23.10;99.90
21815;DHT22;11069;48.988;8.450;2023-08-24T07:18:11;23.30;99.90
21815;DHT22;11069;48.988;8.450;2023-08-24T07:20:37;23.70;99.90
21815;DHT22;11069;48.988;8.450;2023-08-24T07:23:03;23.60;99.90
21815;DHT22;11069;48.988;8.450;2023-08-24T07:25:29;23.80;99.90
21815;DHT22;11069;48.988;8.450;2023-08-24T07:27:55;23.80;99.90
21815;DHT22;11069;48.988;8.450;2023-08-24T07:30:30;23.70;99.90
21815;DHT22;11069;48.988;8.450;2023-08-24T07:32:55;23.90;99.90
21815;DHT22;11069;48.988;8.450;2023-08-24T07:35:21;23.90;99.90
21815;DHT22;11069;48.988;8.450;2023-08-24T07:37:50;24.00;99.90
21815;DHT22;11069;48.988;8.450;2023-08-24T07:40:16;24.20;99.90
21815;DHT22;11069;48.988;8.450;2023-08-24T07:42:49;24.30;99.90
21815;DHT22;11069;48.988;8.450;2023-08-24T07:45:16;24.40;99.90
21815;DHT22;11069;48.988;8.450;2023-08-24T07:47:43;24.70;99.90
21815;DHT22;11069;48.988;8.450;2023-08-24T07:50:09;24.80;99.90
21815;DHT22;11069;48.988;8.450;2023-08-24T07:52:37;24.90;99.90
21815;DHT22;11069;48.988;8.450;2023-08-24T07:55:03;25.10;99.90
21815;DHT22;11069;48.988;8.450;2023-08-24T07:57:29;24.90;99.90
21815;DHT22;11069;48.988;8.450;2023-08-24T07:59:55;25.40;99.90
21815;DHT22;11069;48.988;8.450;2023-08-24T08:02:20;25.40;99.90
21815;DHT22;11069;48.988;8.450;2023-08-24T08:04:46;25.20;99.90
21815;DHT22;11069;48.988;8.450;2023-08-24T08:07:11;25.00;99.90
21815;DHT22;11069;48.988;8.450;2023-08-24T08:09:37;25.50;99.90
21815;DHT22;11069;48.988;8.450;2023-08-24T08:12:03;25.90;99.90
21815;DHT22;11069;48.988;8.450;2023-08-24T08:14:29;26.20;99.90
21815;DHT22;11069;48.988;8.450;2023-08-24T08:16:56;26.30;99.90
21815;DHT22;11069;48.988;8.450;2023-08-24T08:19:22;25.90;99.90
21815;DHT22;11069;48.988;8.450;2023-08-24T08:21:47;26.00;99.90
21815;DHT22;11069;48.988;8.450;2023-08-24T08:24:13;26.10;99.90
21815;DHT22;11069;48.988;8.450;2023-08-24T08:26:38;25.70;99.90
21815;DHT22;11069;48.988;8.450;2023-08-24T08:29:04;25.90;99.90
21815;DHT22;11069;48.988;8.450;2023-08-24T08:31:30;26.20;99.90
21815;DHT22;11069;48.988;8.450;2023-08-24T08:33:56;26.50;99.90
21815;DHT22;11069;48.988;8.450;2023-08-24T08:36:22;26.90;99.90
21815;DHT22;11069;48.988;8.450;2023-08-24T08:38:47;26.40;99.90
21815;DHT22;11069;48.988;8.450;2023-08-24T08:41:15;26.30;99.90
21815;DHT22;11069;48.988;8.450;2023-08-24T08:43:42;26.70;99.90
21815;DHT22;11069;48.988;8.450;2023-08-24T08:46:08;26.60;99.90
21815;DHT22;11069;48.988;8.450;2023-08-24T08:48:34;26.60;99.90
21815;DHT22;11069;48.988;8.450;2023-08-24T08:51:00;26.80;99.90
21815;DHT22;11069;48.988;8.450;2023-08-24T08:53:27;26.60;99.90
21815;DHT22;11069;48.988;8.450;2023-08-24T08:55:55;26.80;99.90
21815;DHT22;11069;48.988;8.450;2023-08-24T08:58:23;26.80;99.90
21815;DHT22;11069;48.988;8.450;2023-08-24T09:00:49;27.20;99.90
21815;DHT22;11069;48.988;8.450;2023-08-24T09:03:18;27.50;99.90
21815;DHT22;11069;48.988;8.450;2023-08-24T09:05:44;27.90;99.90
21815;DHT22;11069;48.988;8.450;2023-08-24T09:08:14;27.90;99.90
21815;DHT22;11069;48.988;8.450;2023-08-24T09:10:41;28.20;99.90
21815;DHT22;11069;48.988;8.450;2023-08-24T09:13:07;28.40;99.70
21815;DHT22;11069;48.988;8.450;2023-08-24T09:15:34;28.80;99.40
21815;DHT22;11069;48.988;8.450;2023-08-24T09:18:01;28.90;99.60
21815;DHT22;11069;48.988;8.450;2023-08-24T09:20:28;28.50;99.90
21815;DHT22;11069;48.988;8.450;2023-08-24T09:22:54;28.70;99.90
21815;DHT22;11069;48.988;8.450;2023-08-24T09:25:25;28.90;98.90
21815;DHT22;11069;48.988;8.450;2023-08-24T09:28:02;29.00;99.30
21815;DHT22;11069;48.988;8.450;2023-08-24T09:30:34;29.20;98.70
21815;DHT22;11069;48.988;8.450;2023-08-24T09:33:05;29.30;98.60
21815;DHT22;11069;48.988;8.450;2023-08-24T09:35:35;29.10;99.90
21815;DHT22;11069;48.988;8.450;2023-08-24T09:38:18;29.20;99.10
21815;DHT22;11069;48.988;8.450;2023-08-24T09:40:45;29.70;98.80
21815;DHT22;11069;48.988;8.450;2023-08-24T09:43:13;30.20;99.10
21815;DHT22;11069;48.988;8.450;2023-08-24T09:45:51;30.40;97.80
21815;DHT22;11069;48.988;8.450;2023-08-24T09:48:17;30.50;96.90
21815;DHT22;11069;48.988;8.450;2023-08-24T09:50:44;30.50;98.40
21815;DHT22;11069;48.988;8.450;2023-08-24T09:53:18;30.40;99.00
21815;DHT22;11069;48.988;8.450;2023-08-24T09:56:13;30.90;97.30
21815;DHT22;11069;48.988;8.450;2023-08-24T09:58:41;31.10;97.00
21815;DHT22;11069;48.988;8.450;2023-08-24T10:01:07;30.90;97.60
21815;DHT22;11069;48.988;8.450;2023-08-24T10:03:34;30.80;98.80
21815;DHT22;11069;48.988;8.450;2023-08-24T10:06:00;30.90;98.90
21815;DHT22;11069;48.988;8.450;2023-08-24T10:08:29;31.00;97.40
21815;DHT22;11069;48.988;8.450;2023-08-24T10:10:56;31.00;96.70
21815;DHT22;11069;48.988;8.450;2023-08-24T10:14:02;31.50;96.40
21815;DHT22;11069;48.988;8.450;2023-08-24T10:16:33;31.40;97.50
21815;DHT22;11069;48.988;8.450;2023-08-24T10:19:02;31.40;97.40
21815;DHT22;11069;48.988;8.450;2023-08-24T10:21:28;32.00;97.70
21815;DHT22;11069;48.988;8.450;2023-08-24T10:23:58;31.80;95.10
21815;DHT22;11069;48.988;8.450;2023-08-24T10:26:26;31.70;97.10
21815;DHT22;11069;48.988;8.450;2023-08-24T10:28:53;31.70;95.60
21815;DHT22;11069;48.988;8.450;2023-08-24T10:31:19;31.70;96.30
21815;DHT22;11069;48.988;8.450;2023-08-24T10:33:46;31.60;95.10
21815;DHT22;11069;48.988;8.450;2023-08-24T10:36:13;31.70;93.80
21815;DHT22;11069;48.988;8.450;2023-08-24T10:38:42;31.70;95.50
21815;DHT22;11069;48.988;8.450;2023-08-24T10:41:09;32.10;94.10
21815;DHT22;11069;48.988;8.450;2023-08-24T10:43:39;32.70;95.50
21815;DHT22;11069;48.988;8.450;2023-08-24T10:46:12;32.80;95.50
21815;DHT22;11069;48.988;8.450;2023-08-24T10:56:16;33.50;92.20
21815;DHT22;11069;48.988;8.450;2023-08-24T10:58:43;33.10;93.60
21815;DHT22;11069;48.988;8.450;2023-08-24T11:01:19;33.70;92.90
21815;DHT22;11069;48.988;8.450;2023-08-24T11:03:54;33.70;92.30
21815;DHT22;11069;48.988;8.450;2023-08-24T11:06:24;33.50;93.70
21815;DHT22;11069;48.988;8.450;2023-08-24T11:09:06;33.60;92.90
21815;DHT22;11069;48.988;8.450;2023-08-24T11:11:38;33.60;92.50
21815;DHT22;11069;48.988;8.450;2023-08-24T11:14:17;33.80;93.90
21815;DHT22;11069;48.988;8.450;2023-08-24T11:16:48;34.40;92.60
21815;DHT22;11069;48.988;8.450;2023-08-24T11:19:16;34.80;92.40
21815;DHT22;11069;48.988;8.450;2023-08-24T11:21:43;34.60;93.10
21815;DHT22;11069;48.988;8.450;2023-08-24T11:24:10;34.00;90.90
21815;DHT22;11069;48.988;8.450;2023-08-24T11:26:42;34.00;91.40
21815;DHT22;11069;48.988;8.450;2023-08-24T11:29:08;33.90;93.40
21815;DHT22;11069;48.988;8.450;2023-08-24T11:31:34;33.20;92.60
21815;DHT22;11069;48.988;8.450;2023-08-24T11:34:00;33.30;93.90
21815;DHT22;11069;48.988;8.450;2023-08-24T11:36:26;33.10;93.90
21815;DHT22;11069;48.988;8.450;2023-08-24T11:38:56;33.50;94.20
21815;DHT22;11069;48.988;8.450;2023-08-24T11:41:22;34.10;92.70
21815;DHT22;11069;48.988;8.450;2023-08-24T11:43:48;34.60;93.50
21815;DHT22;11069;48.988;8.450;2023-08-24T11:46:18;35.20;91.70
21815;DHT22;11069;48.988;8.450;2023-08-24T11:48:45;34.40;92.70
21815;DHT22;11069;48.988;8.450;2023-08-24T11:51:11;34.60;92.70
21815;DHT22;11069;48.988;8.450;2023-08-24T11:53:42;33.80;93.40
21815;DHT22;11069;48.988;8.450;2023-08-24T11:56:09;33.30;94.30
21815;DHT22;11069;48.988;8.450;2023-08-24T11:58:42;32.70;94.20
21815;DHT22;11069;48.988;8.450;2023-08-24T12:01:09;33.20;94.50
21815;DHT22;11069;48.988;8.450;2023-08-24T12:03:36;33.10;94.00
21815;DHT22;11069;48.988;8.450;2023-08-24T12:06:02;33.80;95.20
21815;DHT22;11069;48.988;8.450;2023-08-24T12:08:38;34.30;93.90
21815;DHT22;11069;48.988;8.450;2023-08-24T12:11:19;33.60;92.90
21815;DHT22;11069;48.988;8.450;2023-08-24T12:13:53;32.70;95.60
21815;DHT22;11069;48.988;8.450;2023-08-24T12:16:20;33.00;94.90
21815;DHT22;11069;48.988;8.450;2023-08-24T12:18:51;33.30;93.40
21815;DHT22;11069;48.988;8.450;2023-08-24T12:21:18;33.90;93.00
21815;DHT22;11069;48.988;8.450;2023-08-24T12:23:54;34.30;94.10
21815;DHT22;11069;48.988;8.450;2023-08-24T12:26:20;34.60;94.20
21815;DHT22;11069;48.988;8.450;2023-08-24T12:28:52;34.80;93.30
21815;DHT22;11069;48.988;8.450;2023-08-24T12:31:18;34.70;92.80
21815;DHT22;11069;48.988;8.450;2023-08-24T12:33:45;34.60;92.20
21815;DHT22;11069;48.988;8.450;2023-08-24T12:36:11;34.40;93.50
21815;DHT22;11069;48.988;8.450;2023-08-24T12:38:36;33.70;92.60
21815;DHT22;11069;48.988;8.450;2023-08-24T12:41:02;33.70;91.90
21815;DHT22;11069;48.988;8.450;2023-08-24T12:43:28;33.80;93.60
21815;DHT22;11069;48.988;8.450;2023-08-24T12:45:53;33.50;95.20
21815;DHT22;11069;48.988;8.450;2023-08-24T12:48:19;33.80;92.70
21815;DHT22;11069;48.988;8.450;2023-08-24T12:50:44;34.00;95.10
21815;DHT22;11069;48.988;8.450;2023-08-24T12:53:10;33.80;93.30
21815;DHT22;11069;48.988;8.450;2023-08-24T12:55:39;34.00;95.40
21815;DHT22;11069;48.988;8.450;2023-08-24T12:58:05;34.00;94.10
21815;DHT22;11069;48.988;8.450;2023-08-24T13:00:31;33.90;94.00
21815;DHT22;11069;48.988;8.450;2023-08-24T13:02:57;34.00;94.00
21815;DHT22;11069;48.988;8.450;2023-08-24T13:05:23;33.80;94.10
21815;DHT22;11069;48.988;8.450;2023-08-24T13:07:48;34.30;92.00
21815;DHT22;11069;48.988;8.450;2023-08-24T13:10:14;35.10;92.90
21815;DHT22;11069;48.988;8.450;2023-08-24T13:12:40;36.10;90.50
21815;DHT22;11069;48.988;8.450;2023-08-24T13:15:06;35.60;90.00
21815;DHT22;11069;48.988;8.450;2023-08-24T13:17:32;35.60;89.00
21815;DHT22;11069;48.988;8.450;2023-08-24T13:19:58;36.10;91.00
21815;DHT22;11069;48.988;8.450;2023-08-24T13:22:24;35.00;92.40
21815;DHT22;11069;48.988;8.450;2023-08-24T13:24:49;34.80;91.50
21815;DHT22;11069;48.988;8.450;2023-08-24T13:27:15;34.50;90.70
21815;DHT22;11069;48.988;8.450;2023-08-24T13:29:41;35.20;94.40
21815;DHT22;11069;48.988;8.450;2023-08-24T13:32:06;35.20;92.50
21815;DHT22;11069;48.988;8.450;2023-08-24T13:34:32;35.30;91.40
21815;DHT22;11069;48.988;8.450;2023-08-24T13:36:58;35.20;92.20
21815;DHT22;11069;48.988;8.450;2023-08-24T13:39:25;35.60;91.80
21815;DHT22;11069;48.988;8.450;2023-08-24T13:41:51;34.80;91.20
21815;DHT22;11069;48.988;8.450;2023-08-24T13:44:16;34.40;92.60
21815;DHT22;11069;48.988;8.450;2023-08-24T13:46:42;34.10;93.00
21815;DHT22;11069;48.988;8.450;2023-08-24T13:49:07;33.00;93.90
21815;DHT22;11069;48.988;8.450;2023-08-24T13:51:34;32.40;95.30
21815;DHT22;11069;48.988;8.450;2023-08-24T13:53:59;31.90;95.70
21815;DHT22;11069;48.988;8.450;2023-08-24T13:56:25;31.70;96.00
21815;DHT22;11069;48.988;8.450;2023-08-24T13:58:50;31.20;95.90
21815;DHT22;11069;48.988;8.450;2023-08-24T14:01:16;31.00;96.50
21815;DHT22;11069;48.988;8.450;2023-08-24T14:03:42;30.90;97.30
21815;DHT22;11069;48.988;8.450;2023-08-24T14:06:08;30.90;97.00
21815;DHT22;11069;48.988;8.450;2023-08-24T14:08:34;30.90;98.80
21815;DHT22;11069;48.988;8.450;2023-08-24T14:11:00;30.80;97.20
21815;DHT22;11069;48.988;8.450;2023-08-24T14:13:25;30.50;98.60
21815;DHT22;11069;48.988;8.450;2023-08-24T14:15:51;30.30;98.40
21815;DHT22;11069;48.988;8.450;2023-08-24T14:18:18;30.30;97.80
21815;DHT22;11069;48.988;8.450;2023-08-24T14:20:44;30.20;98.10
21815;DHT22;11069;48.988;8.450;2023-08-24T14:23:09;29.80;99.90
21815;DHT22;11069;48.988;8.450;2023-08-24T14:25:35;27.90;99.90
21815;DHT22;11069;48.988;8.450;2023-08-24T14:28:01;26.40;99.90
21815;DHT22;11069;48.988;8.450;2023-08-24T14:30:26;25.60;99.90
21815;DHT22;11069;48.988;8.450;2023-08-24T14:32:52;25.10;99.90
21815;DHT22;11069;48.988;8.450;2023-08-24T14:35:17;24.70;99.90
21815;DHT22;11069;48.988;8.450;2023-08-24T14:37:43;24.50;99.90
21815;DHT22;11069;48.988;8.450;2023-08-24T14:40:09;24.20;99.90
21815;DHT22;11069;48.988;8.450;2023-08-24T14:42:35;24.10;99.90
21815;DHT22;11069;48.988;8.450;2023-08-24T14:45:01;24.10;99.90
21815;DHT22;11069;48.988;8.450;2023-08-24T14:47:27;24.20;99.90
21815;DHT22;11069;48.988;8.450;2023-08-24T14:49:52;24.20;99.90
21815;DHT22;11069;48.988;8.450;2023-08-24T14:52:18;24.20;99.90
21815;DHT22;11069;48.988;8.450;2023-08-24T14:54:43;24.20;99.90
21815;DHT22;11069;48.988;8.450;2023-08-24T14:57:10;24.20;99.90
21815;DHT22;11069;48.988;8.450;2023-08-24T14:59:35;24.20;99.90
21815;DHT22;11069;48.988;8.450;2023-08-24T15:02:01;24.30;99.90
21815;DHT22;11069;48.988;8.450;2023-08-24T15:04:27;24.50;99.90
21815;DHT22;11069;48.988;8.450;2023-08-24T15:06:53;24.50;99.90
21815;DHT22;11069;48.988;8.450;2023-08-24T15:09:18;24.50;99.90
21815;DHT22;11069;48.988;8.450;2023-08-24T15:11:44;24.50;99.90
21815;DHT22;11069;48.988;8.450;2023-08-24T15:14:10;24.60;99.90
21815;DHT22;11069;48.988;8.450;2023-08-24T15:16:36;24.60;99.90
21815;DHT22;11069;48.988;8.450;2023-08-24T15:19:02;24.80;99.90
21815;DHT22;11069;48.988;8.450;2023-08-24T15:21:27;24.90;99.90
21815;DHT22;11069;48.988;8.450;2023-08-24T15:23:54;25.00;99.90
21815;DHT22;11069;48.988;8.450;2023-08-24T15:26:19;25.20;99.90
21815;DHT22;11069;48.988;8.450;2023-08-24T15:29:22;25.60;99.90
21815;DHT22;11069;48.988;8.450;2023-08-24T15:31:49;26.00;99.90
21815;DHT22;11069;48.988;8.450;2023-08-24T15:34:14;26.40;99.90
21815;DHT22;11069;48.988;8.450;2023-08-24T15:36:40;26.70;99.90
21815;DHT22;11069;48.988;8.450;2023-08-24T15:39:06;26.70;99.90
21815;DHT22;11069;48.988;8.450;2023-08-24T15:41:31;26.70;99.90
21815;DHT22;11069;48.988;8.450;2023-08-24T15:43:57;26.80;99.90
21815;DHT22;11069;48.988;8.450;2023-08-24T15:46:22;26.50;99.90
21815;DHT22;11069;48.988;8.450;2023-08-24T15:48:48;26.30;99.90